createdAt,value
2023-08-12T00:01:18.800Z,100552.44
2023-08-12T00:03:47.448Z,100553.88
2023-08-12T00:06:15.978Z,100556.66
2023-08-12T00:08:44.045Z,100561.78
2023-08-12T00:11:12.485Z,100552.28
2023-08-12T00:13:41.079Z,100561.59
2023-08-12T00:16:09.340Z,100556.88
2023-08-12T00:18:37.958Z,100555.87
2023-08-12T00:21:08.864Z,100554.25
2023-08-12T00:23:41.013Z,100552.94
2023-08-12T00:26:10.395Z,100553.91
2023-08-12T00:28:38.630Z,100546.84
2023-08-12T00:31:06.712Z,100544.75
2023-08-12T00:33:35.429Z,100546.84
2023-08-12T00:36:03.679Z,100546.03
2023-08-12T00:38:32.408Z,100548.66
2023-08-12T00:41:01.420Z,100549.63
2023-08-12T00:43:29.858Z,100543.41
2023-08-12T00:45:58.586Z,100546.03
2023-08-12T00:48:27.185Z,100543.22
2023-08-12T00:50:55.294Z,100543.84
2023-08-12T00:53:23.910Z,100541.84
2023-08-12T00:55:52.762Z,100543.97
2023-08-12T00:58:20.922Z,100534.31
2023-08-12T01:00:49.112Z,100534.50
2023-08-12T01:03:18.109Z,100531.87
2023-08-12T01:05:47.824Z,100525.09
2023-08-12T01:08:15.887Z,100525.97
2023-08-12T01:10:53.703Z,100529.06
2023-08-12T01:13:38.372Z,100537.03
2023-08-12T01:16:09.430Z,100534.69
2023-08-12T01:18:39.629Z,100553.06
2023-08-12T01:21:14.037Z,100551.81
2023-08-12T01:23:42.674Z,100558.38
2023-08-12T01:26:11.297Z,100562.63
2023-08-12T01:28:39.509Z,100560.56
2023-08-12T01:31:14.856Z,100564.97
2023-08-12T01:34:13.854Z,100565.44
2023-08-12T01:36:47.764Z,100562.87
2023-08-12T01:39:17.985Z,100560.59
2023-08-12T01:41:46.981Z,100567.34
2023-08-12T01:44:15.624Z,100570.28
2023-08-12T01:46:45.816Z,100560.59
2023-08-12T01:49:13.982Z,100561.59
2023-08-12T01:51:42.435Z,100553.41
2023-08-12T01:54:10.645Z,100550.44
2023-08-12T01:56:38.907Z,100556.47
2023-08-12T01:59:08.269Z,100549.47
2023-08-12T02:01:36.653Z,100556.09
2023-08-12T02:04:05.410Z,100545.84
2023-08-12T02:06:33.505Z,100546.63
2023-08-12T02:09:01.726Z,100546.59
2023-08-12T02:11:30.179Z,100545.91
2023-08-12T02:13:58.379Z,100544.53
2023-08-12T02:16:26.628Z,100534.19
2023-08-12T02:18:55.046Z,100543.75
2023-08-12T02:21:23.312Z,100542.25
2023-08-12T02:23:51.582Z,100536.09
2023-08-12T02:26:20.287Z,100544.38
2023-08-12T02:28:49.603Z,100539.94
2023-08-12T02:31:18.324Z,100541.13
2023-08-12T02:33:46.804Z,100536.84
2023-08-12T02:36:14.951Z,100541.13
2023-08-12T02:38:57.603Z,100525.84
2023-08-12T02:41:25.770Z,100534.34
2023-08-12T02:43:53.794Z,100525.91
2023-08-12T02:46:22.836Z,100536.75
2023-08-12T02:48:50.895Z,100530.81
2023-08-12T02:51:18.931Z,100539.22
2023-08-12T02:53:47.615Z,100525.22
2023-08-12T02:56:15.726Z,100530.34
2023-08-12T02:58:43.876Z,100532.69
2023-08-12T03:01:12.566Z,100534.31
2023-08-12T03:03:40.980Z,100531.09
2023-08-12T03:06:09.207Z,100533.13
2023-08-12T03:08:37.844Z,100529.09
2023-08-12T03:11:06.367Z,100536.06
2023-08-12T03:13:34.592Z,100528.03
2023-08-12T03:16:04.015Z,100539.22
2023-08-12T03:18:32.709Z,100542.63
2023-08-12T03:21:00.937Z,100549.00
2023-08-12T03:23:29.550Z,100541.50
2023-08-12T03:25:58.651Z,100542.63
2023-08-12T03:28:26.714Z,100554.31
2023-08-12T03:30:55.649Z,100544.44
2023-08-12T03:33:24.217Z,100548.53
2023-08-12T03:35:52.868Z,100544.19
2023-08-12T03:38:21.318Z,100557.59
2023-08-12T03:40:50.818Z,100550.25
2023-08-12T03:43:18.981Z,100554.75
2023-08-12T03:45:48.585Z,100555.50
2023-08-12T03:48:17.049Z,100558.75
2023-08-12T03:50:46.716Z,100553.44
2023-08-12T03:53:15.390Z,100562.41
2023-08-12T03:55:44.189Z,100570.56
2023-08-12T03:58:12.917Z,100562.22
2023-08-12T04:00:44.716Z,100565.09
2023-08-12T04:03:14.410Z,100569.41
2023-08-12T04:05:53.812Z,100566.25
2023-08-12T04:08:23.741Z,100569.53
2023-08-12T04:10:52.514Z,100573.69
2023-08-12T04:13:20.825Z,100558.87
2023-08-12T04:15:54.451Z,100566.91
2023-08-12T04:18:23.287Z,100570.28
2023-08-12T04:20:53.213Z,100574.12
2023-08-12T04:23:21.599Z,100575.50
2023-08-12T04:25:50.752Z,100583.75
2023-08-12T04:28:19.703Z,100583.44
2023-08-12T04:30:54.085Z,100580.59
2023-08-12T04:33:23.712Z,100588.88
2023-08-12T04:35:54.236Z,100580.69
2023-08-12T04:38:24.085Z,100574.12
2023-08-12T04:40:55.203Z,100582.03
2023-08-12T04:43:23.812Z,100593.22
2023-08-12T04:45:52.179Z,100579.50
2023-08-12T04:48:22.214Z,100594.22
2023-08-12T04:50:50.668Z,100594.16
2023-08-12T04:53:19.003Z,100590.91
2023-08-12T04:55:51.912Z,100584.34
2023-08-12T04:58:20.556Z,100586.69
2023-08-12T05:00:49.354Z,100591.50
2023-08-12T05:03:18.926Z,100591.66
2023-08-12T05:05:53.732Z,100588.19
2023-08-12T05:08:22.179Z,100588.59
2023-08-12T05:10:50.929Z,100600.94
2023-08-12T05:13:19.309Z,100596.47
2023-08-12T05:15:48.914Z,100595.19
2023-08-12T05:18:18.219Z,100591.50
2023-08-12T05:20:47.443Z,100594.75
2023-08-12T05:23:16.094Z,100599.19
2023-08-12T05:25:44.803Z,100598.41
2023-08-12T05:28:12.971Z,100598.66
2023-08-12T05:30:41.300Z,100597.22
2023-08-12T05:33:09.889Z,100594.78
2023-08-12T05:35:38.123Z,100601.72
2023-08-12T05:38:06.237Z,100586.69
2023-08-12T05:40:34.642Z,100602.59
2023-08-12T05:43:03.622Z,100596.91
2023-08-12T05:45:31.885Z,100600.03
2023-08-12T05:48:00.293Z,100601.03
2023-08-12T05:50:28.540Z,100595.12
2023-08-12T05:52:56.982Z,100600.41
2023-08-12T05:55:25.362Z,100596.63
2023-08-12T05:57:53.490Z,100594.53
2023-08-12T06:00:21.698Z,100589.13
2023-08-12T06:02:52.673Z,100598.78
2023-08-12T06:05:21.385Z,100600.44
2023-08-12T06:07:50.025Z,100597.47
2023-08-12T06:10:18.148Z,100595.47
2023-08-12T06:12:47.356Z,100599.87
2023-08-12T06:15:15.982Z,100591.16
2023-08-12T06:17:44.207Z,100591.97
2023-08-12T06:20:13.018Z,100595.22
2023-08-12T06:22:41.547Z,100586.97
2023-08-12T06:25:09.911Z,100586.75
2023-08-12T06:27:38.286Z,100590.31
2023-08-12T06:30:07.501Z,100593.09
2023-08-12T06:32:37.016Z,100591.72
2023-08-12T06:35:05.921Z,100602.50
2023-08-12T06:37:34.480Z,100594.84
2023-08-12T06:40:02.673Z,100595.72
2023-08-12T06:42:31.350Z,100590.22
2023-08-12T06:45:01.080Z,100588.72
2023-08-12T06:47:30.927Z,100583.25
2023-08-12T06:49:59.701Z,100578.25
2023-08-12T06:52:27.846Z,100584.97
2023-08-12T06:54:55.963Z,100589.03
2023-08-12T06:57:24.500Z,100588.34
2023-08-12T06:59:52.897Z,100582.50
2023-08-12T07:02:20.928Z,100586.53
2023-08-12T07:04:49.460Z,100579.91
2023-08-12T07:07:17.612Z,100584.38
2023-08-12T07:09:45.677Z,100586.16
2023-08-12T07:12:14.303Z,100593.44
2023-08-12T07:14:43.339Z,100585.78
2023-08-12T07:17:11.486Z,100576.09
2023-08-12T07:19:39.858Z,100584.56
2023-08-12T07:22:07.959Z,100594.38
2023-08-12T07:24:36.374Z,100591.47
2023-08-12T07:27:07.762Z,100587.06
2023-08-12T07:29:36.096Z,100590.31
2023-08-12T07:32:04.965Z,100589.81
2023-08-12T07:34:33.250Z,100588.44
2023-08-12T07:37:01.429Z,100589.31
2023-08-12T07:39:29.866Z,100593.28
2023-08-12T07:41:58.024Z,100586.63
2023-08-12T07:44:26.341Z,100591.53
2023-08-12T07:46:54.908Z,100585.22
2023-08-12T07:49:26.232Z,100585.81
2023-08-12T07:51:54.603Z,100588.44
2023-08-12T07:54:22.706Z,100587.75
2023-08-12T07:56:51.340Z,100586.13
2023-08-12T07:59:19.823Z,100580.72
2023-08-12T08:01:48.409Z,100576.56
2023-08-12T08:04:16.867Z,100574.84
2023-08-12T08:06:44.887Z,100583.25
2023-08-12T08:09:15.928Z,100575.78
2023-08-12T08:11:44.310Z,100580.00
2023-08-12T08:14:12.450Z,100582.97
2023-08-12T08:16:42.916Z,100571.75
2023-08-12T08:19:13.398Z,100581.62
2023-08-12T08:21:42.618Z,100575.19
2023-08-12T08:24:12.547Z,100571.84
2023-08-12T08:26:44.002Z,100569.78
2023-08-12T08:29:12.171Z,100569.41
2023-08-12T08:31:40.860Z,100570.69
2023-08-12T08:34:09.210Z,100584.19
2023-08-12T08:36:37.480Z,100583.00
2023-08-12T08:39:05.907Z,100571.75
2023-08-12T08:41:40.644Z,100574.66
2023-08-12T08:44:10.025Z,100572.34
2023-08-12T08:46:38.406Z,100570.22
2023-08-12T08:49:08.048Z,100578.97
2023-08-12T08:51:36.700Z,100573.41
2023-08-12T08:54:08.041Z,100573.00
2023-08-12T08:56:44.747Z,100571.59
2023-08-12T08:59:16.624Z,100579.72
2023-08-12T09:01:48.412Z,100567.66
2023-08-12T09:04:17.767Z,100573.56
2023-08-12T09:06:46.812Z,100572.13
2023-08-12T09:09:17.860Z,100570.44
2023-08-12T09:11:46.785Z,100567.28
2023-08-12T09:14:15.327Z,100566.34
2023-08-12T09:16:43.534Z,100561.28
2023-08-12T09:19:11.995Z,100564.22
2023-08-12T09:21:40.247Z,100560.84
2023-08-12T09:24:09.561Z,100552.25
2023-08-12T09:26:37.949Z,100560.25
2023-08-12T09:29:06.141Z,100560.78
2023-08-12T09:31:34.622Z,100555.00
2023-08-12T09:34:10.003Z,100561.81
2023-08-12T09:36:38.347Z,100551.91
2023-08-12T09:39:10.185Z,100542.63
2023-08-12T09:41:40.220Z,100548.53
2023-08-12T09:44:09.980Z,100548.06
2023-08-12T09:46:39.740Z,100548.34
2023-08-12T09:49:08.453Z,100548.81
2023-08-12T09:51:38.184Z,100545.13
2023-08-12T09:54:06.399Z,100544.12
2023-08-12T09:56:37.859Z,100549.69
2023-08-12T09:59:10.750Z,100537.69
2023-08-12T10:01:39.822Z,100535.00
2023-08-12T10:04:14.296Z,100534.66
2023-08-12T10:06:42.675Z,100530.09
2023-08-12T10:09:12.268Z,100527.53
2023-08-12T10:11:41.043Z,100520.00
2023-08-12T10:14:10.440Z,100520.56
2023-08-12T10:16:39.537Z,100514.34
2023-08-12T10:19:07.758Z,100513.97
2023-08-12T10:21:36.154Z,100515.75
2023-08-12T10:24:06.302Z,100513.66
2023-08-12T10:26:34.671Z,100517.47
2023-08-12T10:29:03.778Z,100508.69
2023-08-12T10:31:32.343Z,100512.41
2023-08-12T10:34:00.808Z,100509.31
2023-08-12T10:36:29.188Z,100497.41
2023-08-12T10:38:57.937Z,100497.47
2023-08-12T10:41:26.429Z,100496.59
2023-08-12T10:43:55.895Z,100497.63
2023-08-12T10:46:45.754Z,100492.91
2023-08-12T10:49:14.113Z,100487.56
2023-08-12T10:51:46.883Z,100485.22
2023-08-12T10:54:17.291Z,100486.84
2023-08-12T10:57:04.316Z,100487.41
2023-08-12T10:59:47.749Z,100487.06
2023-08-12T11:02:30.548Z,100475.72
2023-08-12T11:05:04.017Z,100474.37
2023-08-12T11:07:59.634Z,100474.75
2023-08-12T11:10:34.033Z,100469.78
2023-08-12T11:13:04.852Z,100478.97
2023-08-12T11:15:38.132Z,100475.50
2023-08-12T11:18:11.462Z,100470.38
2023-08-12T11:20:40.198Z,100465.66
2023-08-12T11:23:09.907Z,100461.47
2023-08-12T11:25:40.609Z,100458.38
2023-08-12T11:28:09.656Z,100443.84
2023-08-12T11:30:37.984Z,100446.72
2023-08-12T11:33:06.556Z,100444.41
2023-08-12T11:35:35.815Z,100444.56
2023-08-12T11:38:05.994Z,100442.22
2023-08-12T11:40:35.782Z,100444.84
2023-08-12T11:43:07.147Z,100440.47
2023-08-12T11:45:35.799Z,100439.63
2023-08-12T11:48:06.047Z,100438.84
2023-08-12T11:50:34.675Z,100433.06
2023-08-12T11:53:03.265Z,100429.59
2023-08-12T11:55:31.689Z,100428.81
2023-08-12T11:57:59.869Z,100438.09
2023-08-12T12:00:28.571Z,100427.34
2023-08-12T12:02:57.786Z,100426.06
2023-08-12T12:05:33.155Z,100419.19
2023-08-12T12:08:01.815Z,100409.72
2023-08-12T12:10:34.812Z,100420.41
2023-08-12T12:13:05.639Z,100409.50
2023-08-12T12:15:42.236Z,100415.66
2023-08-12T12:18:14.416Z,100407.19
2023-08-12T12:20:58.358Z,100409.44
2023-08-12T12:23:30.559Z,100395.72
2023-08-12T12:26:03.240Z,100404.09
2023-08-12T12:28:32.163Z,100397.84
2023-08-12T12:31:00.619Z,100400.50
2023-08-12T12:33:28.798Z,100392.13
2023-08-12T12:36:00.371Z,100390.38
2023-08-12T12:38:30.117Z,100385.31
2023-08-12T12:40:58.769Z,100386.00
2023-08-12T12:43:26.928Z,100386.84
2023-08-12T12:45:55.179Z,100389.53
2023-08-12T12:48:23.854Z,100380.47
2023-08-12T12:50:52.032Z,100383.37
2023-08-12T12:53:20.222Z,100384.62
2023-08-12T12:55:49.206Z,100385.47
2023-08-12T12:58:17.637Z,100388.63
2023-08-12T13:00:45.765Z,100384.06
2023-08-12T13:03:14.351Z,100378.38
2023-08-12T13:05:42.426Z,100372.94
2023-08-12T13:08:10.509Z,100373.16
2023-08-12T13:10:39.141Z,100360.44
2023-08-12T13:13:07.236Z,100365.25
2023-08-12T13:15:35.921Z,100361.53
2023-08-12T13:18:04.673Z,100372.22
2023-08-12T13:20:32.746Z,100364.50
2023-08-12T13:23:01.020Z,100355.81
2023-08-12T13:25:34.647Z,100358.13
2023-08-12T13:28:04.654Z,100355.81
2023-08-12T13:30:33.123Z,100353.53
2023-08-12T13:33:02.145Z,100352.56
2023-08-12T13:35:30.493Z,100350.62
2023-08-12T13:37:58.987Z,100347.28
2023-08-12T13:40:27.564Z,100346.78
2023-08-12T13:42:55.744Z,100340.22
2023-08-12T13:45:26.340Z,100334.56
2023-08-12T13:47:54.638Z,100337.22
2023-08-12T13:50:23.018Z,100326.06
2023-08-12T13:52:51.688Z,100323.94
2023-08-12T13:55:20.140Z,100329.63
2023-08-12T13:57:48.212Z,100327.75
2023-08-12T14:00:16.942Z,100327.19
2023-08-12T14:02:45.678Z,100317.22
2023-08-12T14:05:14.060Z,100318.59
2023-08-12T14:07:42.460Z,100316.16
2023-08-12T14:10:11.059Z,100321.16
2023-08-12T14:12:39.535Z,100315.37
2023-08-12T14:15:08.193Z,100313.88
2023-08-12T14:17:36.708Z,100308.81
2023-08-12T14:20:08.902Z,100311.81
2023-08-12T14:22:37.592Z,100307.41
2023-08-12T14:25:06.608Z,100305.22
2023-08-12T14:27:34.881Z,100311.56
2023-08-12T14:30:04.332Z,100295.91
2023-08-12T14:32:32.846Z,100298.50
2023-08-12T14:35:00.972Z,100295.19
2023-08-12T14:37:29.580Z,100302.28
2023-08-12T14:39:58.075Z,100297.59
2023-08-12T14:42:26.357Z,100298.88
2023-08-12T14:44:55.013Z,100292.06
2023-08-12T14:47:23.207Z,100296.09
2023-08-12T14:49:53.378Z,100298.44
2023-08-12T14:52:21.959Z,100299.50
2023-08-12T14:54:50.364Z,100299.25
2023-08-12T14:57:18.473Z,100291.25
2023-08-12T14:59:51.681Z,100297.72
2023-08-12T15:02:23.894Z,100285.91
2023-08-12T15:04:52.605Z,100281.37
2023-08-12T15:07:22.366Z,100274.91
2023-08-12T15:09:52.412Z,100276.66
2023-08-12T15:12:21.514Z,100268.56
2023-08-12T15:14:49.783Z,100267.75
2023-08-12T15:17:17.909Z,100269.62
2023-08-12T15:19:46.403Z,100265.09
2023-08-12T15:22:15.469Z,100260.94
2023-08-12T15:24:43.500Z,100255.59
2023-08-12T15:27:12.160Z,100247.03
2023-08-12T15:29:40.897Z,100255.28
2023-08-12T15:32:08.926Z,100257.34
2023-08-12T15:34:37.269Z,100249.84
2023-08-12T15:37:05.582Z,100251.56
2023-08-12T15:39:34.795Z,100249.12
2023-08-12T15:42:03.558Z,100250.97
2023-08-12T15:44:31.907Z,100246.59
2023-08-12T15:47:00.052Z,100250.31
2023-08-12T15:49:33.330Z,100244.06
2023-08-12T15:52:02.544Z,100240.69
2023-08-12T15:54:30.954Z,100244.66
2023-08-12T15:56:59.023Z,100242.69
2023-08-12T15:59:27.198Z,100246.38
2023-08-12T16:01:55.662Z,100238.78
2023-08-12T16:04:24.190Z,100238.44
2023-08-12T16:06:52.624Z,100237.28
2023-08-12T16:09:23.611Z,100238.19
2023-08-12T16:11:52.622Z,100238.13
2023-08-12T16:14:20.777Z,100238.00
2023-08-12T16:16:48.985Z,100241.56
2023-08-12T16:19:17.409Z,100240.09
2023-08-12T16:21:45.603Z,100239.94
2023-08-12T16:24:13.742Z,100237.75
2023-08-12T16:26:42.126Z,100239.03
2023-08-12T16:29:10.290Z,100239.12
2023-08-12T16:31:40.402Z,100236.94
2023-08-12T16:34:09.365Z,100236.56
2023-08-12T16:36:37.896Z,100235.88
2023-08-12T16:39:07.739Z,100238.41
2023-08-12T16:41:36.433Z,100239.12
2023-08-12T16:44:05.334Z,100240.63
2023-08-12T16:46:33.513Z,100231.69
2023-08-12T16:49:01.946Z,100233.44
2023-08-12T16:51:29.963Z,100233.87
2023-08-12T16:53:58.104Z,100235.03
2023-08-12T16:56:26.719Z,100235.50
2023-08-12T16:58:54.914Z,100235.34
2023-08-12T17:01:26.062Z,100245.25
2023-08-12T17:03:54.577Z,100246.59
2023-08-12T17:06:23.340Z,100248.78
2023-08-12T17:08:51.567Z,100243.53
2023-08-12T17:11:20.887Z,100242.78
2023-08-12T17:13:49.100Z,100241.28
2023-08-12T17:16:17.220Z,100241.34
2023-08-12T17:18:45.676Z,100244.09
2023-08-12T17:21:13.927Z,100245.19
2023-08-12T17:23:42.166Z,100245.50
2023-08-12T17:26:10.577Z,100248.44
2023-08-12T17:28:38.822Z,100243.19
2023-08-12T17:31:07.328Z,100245.31
2023-08-12T17:33:35.882Z,100239.72
2023-08-12T17:36:04.483Z,100247.53
2023-08-12T17:38:32.603Z,100244.56
2023-08-12T17:41:03.525Z,100246.22
2023-08-12T17:43:31.723Z,100248.53
2023-08-12T17:46:00.055Z,100242.81
2023-08-12T17:48:28.936Z,100252.47
2023-08-12T17:50:57.190Z,100254.16
2023-08-12T17:53:25.324Z,100251.13
2023-08-12T17:55:53.752Z,100255.41
2023-08-12T17:58:21.946Z,100248.56
2023-08-12T18:00:50.085Z,100252.28
2023-08-12T18:03:18.756Z,100259.91
2023-08-12T18:05:47.493Z,100263.22
2023-08-12T18:08:15.612Z,100262.66
2023-08-12T18:10:44.165Z,100258.63
2023-08-12T18:13:12.637Z,100257.84
2023-08-12T18:15:40.729Z,100262.38
2023-08-12T18:18:09.313Z,100257.91
2023-08-12T18:20:37.734Z,100262.00
2023-08-12T18:23:06.051Z,100269.94
2023-08-12T18:25:34.488Z,100265.28
2023-08-12T18:28:02.707Z,100271.63
2023-08-12T18:30:31.948Z,100274.47
2023-08-12T18:33:04.205Z,100274.94
2023-08-12T18:35:33.386Z,100276.59
2023-08-12T18:38:02.289Z,100282.13
2023-08-12T18:40:33.361Z,100287.41
2023-08-12T18:43:02.167Z,100285.38
2023-08-12T18:45:30.368Z,100284.37
2023-08-12T18:47:58.690Z,100284.19
2023-08-12T18:50:27.552Z,100294.97
2023-08-12T18:52:56.056Z,100305.56
2023-08-12T18:55:24.420Z,100288.22
2023-08-12T18:57:53.076Z,100289.47
2023-08-12T19:00:21.983Z,100299.84
2023-08-12T19:02:51.211Z,100299.22
2023-08-12T19:05:19.996Z,100300.88
2023-08-12T19:07:48.131Z,100307.59
2023-08-12T19:10:16.372Z,100308.19
2023-08-12T19:12:45.024Z,100308.97
2023-08-12T19:15:13.092Z,100308.97
2023-08-12T19:17:41.193Z,100313.44
2023-08-12T19:20:11.095Z,100314.47
2023-08-12T19:22:39.367Z,100310.78
2023-08-12T19:25:07.905Z,100310.38
2023-08-12T19:27:36.502Z,100313.22
2023-08-12T19:30:05.219Z,100308.94
2023-08-12T19:32:55.678Z,100313.81
2023-08-12T19:35:24.272Z,100314.59
2023-08-12T19:37:56.284Z,100316.56
2023-08-12T19:40:24.923Z,100316.72
2023-08-12T19:42:53.743Z,100313.81
2023-08-12T19:45:21.958Z,100312.66
2023-08-12T19:47:50.413Z,100328.63
2023-08-12T19:50:18.486Z,100321.69
2023-08-12T19:52:46.617Z,100326.75
2023-08-12T19:55:15.232Z,100324.56
2023-08-12T19:57:43.526Z,100329.22
2023-08-12T20:00:12.237Z,100326.00
2023-08-12T20:02:42.701Z,100329.41
2023-08-12T20:05:19.116Z,100328.09
2023-08-12T20:07:49.361Z,100331.84
2023-08-12T20:10:20.047Z,100340.31
2023-08-12T20:12:48.494Z,100335.25
2023-08-12T20:15:17.353Z,100339.13
2023-08-12T20:17:45.819Z,100336.41
2023-08-12T20:20:18.536Z,100340.22
2023-08-12T20:23:03.198Z,100338.37
2023-08-12T20:25:37.161Z,100339.16
2023-08-12T20:28:08.652Z,100342.97
2023-08-12T20:30:37.659Z,100340.38
2023-08-12T20:33:06.537Z,100340.84
2023-08-12T20:35:34.839Z,100346.13
2023-08-12T20:38:03.187Z,100344.53
2023-08-12T20:40:31.569Z,100339.00
2023-08-12T20:42:59.866Z,100340.94
2023-08-12T20:45:28.034Z,100344.53
2023-08-12T20:47:56.418Z,100345.31
2023-08-12T20:50:24.799Z,100350.75
2023-08-12T20:52:53.101Z,100354.16
2023-08-12T20:55:21.499Z,100359.03
2023-08-12T20:57:49.769Z,100358.06
2023-08-12T21:00:18.436Z,100355.84
2023-08-12T21:02:46.932Z,100355.03
2023-08-12T21:05:15.482Z,100354.47
2023-08-12T21:07:43.848Z,100361.12
2023-08-12T21:10:13.200Z,100363.78
2023-08-12T21:12:41.449Z,100363.13
2023-08-12T21:15:10.976Z,100347.44
2023-08-12T21:17:39.502Z,100356.00
2023-08-12T21:20:08.413Z,100352.44
2023-08-12T21:22:36.609Z,100353.62
2023-08-12T21:25:05.618Z,100354.84
2023-08-12T21:27:34.769Z,100348.63
2023-08-12T21:30:03.257Z,100350.44
2023-08-12T21:32:32.701Z,100352.03
2023-08-12T21:35:01.532Z,100349.37
2023-08-12T21:37:30.428Z,100348.56
2023-08-12T21:39:58.880Z,100347.12
2023-08-12T21:42:26.989Z,100347.69
2023-08-12T21:44:55.329Z,100346.22
2023-08-12T21:47:23.750Z,100347.25
2023-08-12T21:49:51.814Z,100346.22
2023-08-12T21:52:19.972Z,100346.00
2023-08-12T21:54:48.705Z,100343.53
2023-08-12T21:57:16.997Z,100339.56
2023-08-12T21:59:45.608Z,100340.75
2023-08-12T22:02:23.616Z,100337.41
2023-08-12T22:04:52.358Z,100336.53
2023-08-12T22:07:21.072Z,100338.34
2023-08-12T22:09:49.044Z,100342.25
2023-08-12T22:12:17.316Z,100334.34
2023-08-12T22:14:45.533Z,100334.69
2023-08-12T22:17:13.777Z,100327.63
2023-08-12T22:19:42.251Z,100331.06
2023-08-12T22:22:19.177Z,100333.31
2023-08-12T22:24:49.032Z,100334.69
2023-08-12T22:27:17.233Z,100338.09
2023-08-12T22:29:45.362Z,100340.72
2023-08-12T22:32:14.267Z,100334.00
2023-08-12T22:34:42.579Z,100333.06
2023-08-12T22:37:11.121Z,100322.44
2023-08-12T22:39:39.812Z,100325.59
2023-08-12T22:42:08.033Z,100317.97
2023-08-12T22:44:36.139Z,100320.28
2023-08-12T22:47:04.929Z,100323.72
2023-08-12T22:49:33.053Z,100325.19
2023-08-12T22:52:01.120Z,100315.44
2023-08-12T22:54:29.590Z,100320.56
2023-08-12T22:56:57.913Z,100323.19
2023-08-12T22:59:26.202Z,100319.28
2023-08-12T23:01:54.669Z,100327.19
2023-08-12T23:04:22.820Z,100322.56
2023-08-12T23:06:50.932Z,100323.91
2023-08-12T23:09:19.816Z,100323.31
2023-08-12T23:11:47.956Z,100325.94
2023-08-12T23:14:15.990Z,100318.66
2023-08-12T23:16:44.530Z,100320.66
2023-08-12T23:19:12.870Z,100313.09
2023-08-12T23:21:40.940Z,100318.56
2023-08-12T23:24:09.458Z,100326.22
2023-08-12T23:26:38.258Z,100318.84
2023-08-12T23:29:07.058Z,100324.75
2023-08-12T23:31:35.515Z,100329.19
2023-08-12T23:34:03.715Z,100322.28
2023-08-12T23:36:34.615Z,100312.97
2023-08-12T23:39:04.690Z,100315.41
2023-08-12T23:41:33.113Z,100311.13
2023-08-12T23:44:01.536Z,100316.41
2023-08-12T23:46:30.049Z,100312.59
2023-08-12T23:48:58.050Z,100312.31
2023-08-12T23:51:26.129Z,100319.69
2023-08-12T23:53:54.852Z,100313.66
2023-08-12T23:56:22.924Z,100312.03
2023-08-12T23:58:51.035Z,100299.41
